.
WxDataArchive / Data Records for 2009-02-27
2009-02-26 February 2009 2009-02-28

Data Records for Friday, 27 February 2009

Time	Temp	Chill	HIndex	Humid	Dewpt	 Wind 	HiWind	WindDir	Rain 	Barom 
-----	----	-----	------	-----	-----	------	------	-------	-----	----- 
00:00	55.1	55.1	55.1	80	49.0	5	14	90	0.00	29.548 
00:05	55.3	55.3	55.3	79	48.9	6	14	68	0.00	29.546 
00:10	55.4	55.4	55.4	79	49.0	6	22	270	0.00	29.544 
00:15	55.6	55.6	55.6	78	48.8	6	13	315	0.00	29.536 
00:20	55.6	55.6	55.6	79	49.2	4	11	248	0.00	29.544 
00:25	55.6	55.6	55.6	79	49.2	6	14	270	0.00	29.544 
00:30	55.7	55.7	55.7	79	49.3	4	11	270	0.00	29.557 
00:35	55.1	55.1	55.1	83	50.0	5	12	270	0.03	29.553 
00:40	54.5	54.5	54.5	85	50.1	6	14	248	0.01	29.562 
00:45	54.1	54.1	54.1	87	50.3	6	15	270	0.02	29.576 
00:50	53.8	53.8	53.8	89	50.6	6	11	270	0.02	29.573 
00:55	53.6	53.6	53.6	90	50.7	3	10	248	0.02	29.571 
01:00	53.5	53.5	53.5	91	50.9	5	16	248	0.03	29.577 
01:05	53.3	53.3	53.3	91	50.7	3	12	270	0.02	29.565 
01:10	53.3	53.3	53.3	92	51.0	5	11	248	0.01	29.561 
01:15	53.3	53.3	53.3	92	51.0	4	12	270	0.01	29.563 
01:20	53.3	53.3	53.3	92	51.0	4	17	112	0.01	29.551 
01:25	53.5	53.5	53.5	92	51.2	5	14	270	0.00	29.544 
01:30	53.8	53.8	53.8	92	51.5	5	15	292	0.01	29.529 
01:35	53.8	53.8	53.8	92	51.5	4	12	248	0.00	29.530 
01:40	53.8	53.8	53.8	92	51.5	6	15	270	0.00	29.527 
01:45	53.9	53.9	53.9	92	51.6	7	18	292	0.03	29.511 
01:50	53.9	53.9	53.9	92	51.6	7	15	90	0.02	29.528 
01:55	53.8	53.8	53.8	93	51.8	8	23	90	0.00	29.507 
02:00	53.8	53.8	53.8	93	51.8	5	12	90	0.01	29.512 
02:05	53.8	53.8	53.8	93	51.8	5	12	90	0.00	29.517 
02:10	53.6	53.6	53.6	93	51.6	4	10	248	0.00	29.543 
02:15	53.6	53.6	53.6	93	51.6	4	9	270	0.00	29.543 
02:20	53.9	53.9	53.9	93	51.9	4	10	248	0.00	29.543 
02:25	54.1	54.1	54.1	92	51.8	3	9	248	0.00	29.536 
02:30	54.1	54.1	54.1	92	51.8	3	12	248	0.00	29.531 
02:35	53.9	53.9	53.9	92	51.6	3	10	270	0.00	29.521 
02:40	53.9	53.9	53.9	92	51.6	2	6	248	0.00	29.509 
02:45	53.9	53.9	53.9	92	51.6	4	7	248	0.00	29.514 
02:50	53.8	53.8	53.8	92	51.5	2	7	248	0.00	29.513 
02:55	53.8	53.8	53.8	92	51.5	3	6	248	0.00	29.508 
03:00	53.8	53.8	53.8	92	51.5	3	11	248	0.00	29.503 
03:05	53.8	53.8	53.8	92	51.5	4	10	248	0.00	29.500 
03:10	53.8	53.8	53.8	91	51.2	4	10	248	0.00	29.502 
03:15	53.9	53.9	53.9	91	51.3	5	11	248	0.00	29.503 
03:20	54.1	54.1	54.1	90	51.2	4	8	248	0.00	29.503 
03:25	54.4	54.4	54.4	89	51.2	5	11	248	0.00	29.501 
03:30	54.5	54.5	54.5	89	51.3	4	10	248	0.00	29.501 
03:35	55.0	55.0	55.0	88	51.5	6	14	248	0.00	29.500 
03:40	55.3	55.3	55.3	87	51.5	6	14	270	0.00	29.500 
03:45	55.6	55.6	55.6	86	51.5	5	10	248	0.00	29.500 
03:50	55.7	55.7	55.7	86	51.6	4	10	248	0.00	29.499 
03:55	55.9	55.9	55.9	84	51.1	6	10	248	0.00	29.498 
04:00	55.9	55.9	55.9	84	51.1	5	11	248	0.00	29.498 
04:05	55.9	55.9	55.9	84	51.1	4	10	248	0.00	29.499 
04:10	55.7	55.7	55.7	83	50.6	3	7	248	0.00	29.499 
04:15	55.6	55.6	55.6	83	50.5	3	7	248	0.00	29.499 
04:20	55.4	55.4	55.4	83	50.3	4	12	248	0.00	29.500 
04:25	55.3	55.3	55.3	83	50.2	3	12	248	0.00	29.499 
04:30	55.1	55.1	55.1	83	50.0	3	9	248	0.00	29.501 
04:35	55.1	55.1	55.1	84	50.4	4	11	248	0.00	29.503 
04:40	55.0	55.0	55.0	85	50.6	4	9	248	0.00	29.509 
04:45	54.7	54.7	54.7	86	50.6	3	6	248	0.00	29.514 
04:50	54.5	54.5	54.5	87	50.7	3	7	248	0.00	29.515 
04:55	54.4	54.4	54.4	88	50.9	4	10	248	0.00	29.517 
05:00	54.4	54.4	54.4	89	51.2	5	12	270	0.00	29.521 
05:05	54.1	54.1	54.1	90	51.2	4	11	248	0.00	29.521 
05:10	53.9	53.9	53.9	91	51.3	4	10	248	0.00	29.525 
05:15	53.9	53.9	53.9	92	51.6	3	12	248	0.00	29.528 
05:20	53.8	53.8	53.8	92	51.5	3	6	270	0.00	29.530 
05:25	53.6	53.6	53.6	92	51.3	2	5	248	0.01	29.536 
05:30	53.5	53.5	53.5	93	51.5	2	10	248	0.00	29.539 
05:35	53.1	53.1	53.1	93	51.1	2	6	270	0.00	29.543 
05:40	52.5	52.5	52.5	92	50.2	4	9	270	0.00	29.547 
05:45	52.0	52.0	52.0	92	49.7	3	6	270	0.00	29.548 
05:50	51.4	51.4	51.4	92	49.2	4	10	270	0.00	29.550 
05:55	51.1	51.1	51.1	92	48.9	4	9	270	0.00	29.557 
06:00	51.0	51.0	51.0	92	48.8	3	6	248	0.00	29.561 
06:05	50.8	50.8	50.8	93	48.8	3	7	270	0.00	29.563 
06:10	50.7	50.7	50.7	93	48.7	2	7	248	0.00	29.562 
06:15	50.5	50.5	50.5	92	48.3	3	9	248	0.00	29.566 
06:20	50.4	50.4	50.4	92	48.2	4	7	270	0.00	29.572 
06:25	50.1	50.1	50.1	92	47.9	3	5	270	0.00	29.582 
06:30	48.6	46.6	48.6	91	46.1	5	10	270	0.00	29.594 
06:35	47.6	46.1	47.6	90	44.8	4	7	270	0.00	29.600 
06:40	46.8	45.2	46.8	90	44.0	4	11	270	0.00	29.607 
06:45	46.2	46.2	46.2	90	43.4	3	7	292	0.00	29.619 
06:50	44.6	41.9	44.6	89	41.6	5	11	270	0.00	29.632 
06:55	43.2	41.0	43.2	89	40.2	4	11	270	0.00	29.638 
07:00	42.2	39.9	42.2	90	39.5	4	7	270	0.00	29.652 
07:05	41.6	39.2	41.6	91	39.2	4	11	270	0.00	29.657 
07:10	41.1	38.6	41.1	91	38.7	4	6	270	0.00	29.666 
07:15	40.6	38.0	40.6	91	38.2	4	12	270	0.00	29.668 
07:20	40.2	40.2	40.2	92	38.1	3	6	270	0.00	29.671 
07:25	39.9	39.9	39.9	92	37.8	3	9	270	0.00	29.679 
07:30	39.6	39.6	39.6	92	37.5	3	8	270	0.00	29.684 
07:35	39.1	36.3	39.1	92	37.0	4	7	270	0.00	29.690 
07:40	38.6	35.7	38.6	92	36.5	4	9	270	0.00	29.701 
07:45	38.3	35.4	38.3	92	36.2	4	9	270	0.00	29.702 
07:50	37.9	34.9	37.9	92	35.8	4	12	270	0.00	29.710 
07:55	37.6	33.7	37.6	92	35.5	5	13	270	0.00	29.716 
08:00	37.3	33.3	37.3	91	34.9	5	11	270	0.00	29.726 
08:05	37.0	32.9	37.0	91	34.6	5	15	270	0.00	29.733 
08:10	36.5	33.3	36.5	90	33.9	4	11	270	0.00	29.741 
08:15	36.3	33.0	36.3	90	33.7	4	10	270	0.00	29.749 
08:20	36.0	32.7	36.0	90	33.4	4	9	270	0.00	29.752 
08:25	35.9	32.6	35.9	90	33.3	4	12	270	0.00	29.762 
08:30	35.8	35.8	35.8	90	33.2	3	11	270	0.00	29.766 
08:35	35.8	35.8	35.8	90	33.2	2	7	270	0.00	29.765 
08:40	35.5	35.5	35.5	90	32.9	3	6	270	0.00	29.768 
08:45	35.3	35.3	35.3	90	32.7	2	5	292	0.00	29.778 
08:50	35.2	35.2	35.2	89	32.3	3	7	315	0.00	29.783 
08:55	34.9	30.5	34.9	89	32.0	5	10	270	0.00	29.788 
09:00	34.7	34.7	34.7	88	31.5	3	6	270	0.00	29.793 
09:05	34.6	34.6	34.6	88	31.4	3	7	270	0.00	29.798 
09:10	34.6	34.6	34.6	89	31.7	2	5	315	0.00	29.807 
09:15	34.6	34.6	34.6	88	31.4	3	7	270	0.00	29.813 
09:20	34.4	30.8	34.4	88	31.2	4	9	270	0.00	29.815 
09:25	34.3	34.3	34.3	88	31.1	3	6	270	0.00	29.821 
09:30	34.3	34.3	34.3	88	31.1	3	7	270	0.00	29.828 
09:35	34.1	30.5	34.1	88	30.9	4	9	270	0.00	29.831 
09:40	33.8	33.8	33.8	88	30.6	3	8	270	0.00	29.840 
09:45	33.7	33.7	33.7	88	30.5	3	7	270	0.00	29.844 
09:50	33.4	29.7	33.4	88	30.2	4	11	270	0.00	29.846 
09:55	33.2	33.2	33.2	88	30.0	3	7	270	0.00	29.853 
10:00	33.1	33.1	33.1	88	29.9	3	6	270	0.00	29.861 
10:05	32.9	29.1	32.9	88	29.7	4	10	270	0.00	29.861 
10:10	32.9	32.9	32.9	88	29.7	3	10	270	0.00	29.868 
10:15	32.8	32.8	32.8	88	29.6	3	10	270	0.00	29.876 
10:20	32.9	32.9	32.9	88	29.7	2	6	315	0.00	29.880 
10:25	32.9	32.9	32.9	88	29.7	3	7	292	0.00	29.886 
10:30	32.7	28.9	32.7	88	29.5	4	9	292	0.00	29.889 
10:35	32.7	32.7	32.7	88	29.5	3	7	270	0.00	29.891 
10:40	32.5	32.5	32.5	88	29.3	3	7	270	0.00	29.893 
10:45	32.5	32.5	32.5	88	29.3	3	7	270	0.00	29.897 
10:50	32.5	32.5	32.5	88	29.3	3	7	270	0.00	29.903 
10:55	32.4	32.4	32.4	88	29.3	3	6	315	0.00	29.908 
11:00	32.4	32.4	32.4	88	29.3	3	6	270	0.00	29.911 
11:05	32.4	32.4	32.4	89	29.5	2	9	292	0.00	29.912 
11:10	32.4	32.4	32.4	89	29.5	2	6	0	0.00	29.919 
11:15	32.4	32.4	32.4	88	29.3	2	6	292	0.00	29.924 
11:20	32.4	32.4	32.4	88	29.3	2	6	270	0.00	29.925 
11:25	32.4	32.4	32.4	88	29.3	2	7	315	0.00	29.926 
11:30	32.4	32.4	32.4	88	29.3	2	5	270	0.00	29.932 
11:35	32.2	32.2	32.2	88	29.1	3	12	270	0.00	29.933 
11:40	32.2	32.2	32.2	88	29.1	2	6	315	0.00	29.939 
11:45	32.2	32.2	32.2	88	29.1	2	5	338	0.00	29.940 
11:50	32.2	32.2	32.2	88	29.1	2	5	315	0.00	29.941 
11:55	32.2	32.2	32.2	88	29.1	2	6	315	0.00	29.943 
12:00	32.2	32.2	32.2	88	29.1	2	6	315	0.00	29.949 
12:05	32.4	32.4	32.4	88	29.3	2	4	315	0.00	29.956 
12:10	32.4	32.4	32.4	88	29.3	2	4	338	0.00	29.958 
12:15	32.2	32.2	32.2	87	28.8	3	9	315	0.00	29.963 
12:20	32.2	32.2	32.2	86	28.5	2	6	270	0.00	29.964 
12:25	32.4	32.4	32.4	86	28.7	2	6	270	0.00	29.967 
12:30	32.5	32.5	32.5	85	28.5	2	5	292	0.00	29.971 
12:35	32.4	32.4	32.4	84	28.1	3	9	315	0.00	29.972 
12:40	32.9	32.9	32.9	84	28.6	2	6	338	0.00	29.972 
12:45	33.2	33.2	33.2	83	28.6	1	4	338	0.00	29.976 
12:50	33.4	33.4	33.4	83	28.8	2	4	338	0.00	29.982 
12:55	32.9	32.9	32.9	82	28.0	3	8	315	0.00	29.982 
13:00	32.7	32.7	32.7	82	27.8	2	9	338	0.00	29.985 
13:05	32.5	32.5	32.5	83	27.9	2	5	292	0.00	29.985 
13:10	32.5	32.5	32.5	82	27.6	2	7	315	0.00	29.986 
13:15	32.5	32.5	32.5	83	27.9	2	7	338	0.00	29.990 
13:20	32.5	32.5	32.5	82	27.6	2	7	315	0.00	29.992 
13:25	32.4	32.4	32.4	82	27.5	2	4	292	0.00	29.997 
13:30	32.2	32.2	32.2	81	27.0	2	6	315	0.00	30.003 
13:35	32.1	32.1	32.1	82	27.2	2	5	315	0.00	30.003 
13:40	31.9	31.9	31.9	82	27.0	2	6	315	0.00	30.005 
13:45	31.9	31.9	31.9	81	26.7	1	7	338	0.00	30.004 
13:50	32.1	32.1	32.1	81	26.9	1	4	338	0.00	30.004 
13:55	32.4	32.4	32.4	81	27.2	2	5	292	0.00	30.005 
14:00	32.5	32.5	32.5	81	27.3	2	6	315	0.00	30.014 
14:05	32.5	32.5	32.5	80	27.0	2	7	292	0.00	30.016 
14:10	32.5	32.5	32.5	80	27.0	2	6	338	0.00	30.019 
14:15	32.2	32.2	32.2	79	26.4	3	7	270	0.00	30.020 
14:20	32.1	32.1	32.1	79	26.3	2	5	315	0.00	30.023 
14:25	32.1	32.1	32.1	80	26.6	1	5	315	0.00	30.025 
14:30	32.4	32.4	32.4	80	26.9	2	6	292	0.00	30.028 
14:35	32.5	32.5	32.5	80	27.0	2	5	315	0.00	30.031 
14:40	32.4	32.4	32.4	79	26.6	2	5	292	0.00	30.035 
14:45	32.4	32.4	32.4	78	26.3	2	6	292	0.00	30.038 
14:50	32.4	32.4	32.4	78	26.3	2	6	270	0.00	30.040 
14:55	32.5	32.5	32.5	77	26.1	2	5	0	0.00	30.039 
15:00	32.5	32.5	32.5	77	26.1	2	6	315	0.00	30.042 
15:05	32.4	32.4	32.4	77	26.0	2	7	338	0.00	30.045 
15:10	32.4	32.4	32.4	77	26.0	2	5	315	0.00	30.049 
15:15	32.2	32.2	32.2	77	25.8	2	6	315	0.00	30.050 
15:20	32.1	32.1	32.1	77	25.7	2	6	338	0.00	30.051 
15:25	32.1	32.1	32.1	76	25.4	3	9	315	0.00	30.055 
15:30	31.9	31.9	31.9	76	25.2	2	6	270	0.00	30.063 
15:35	31.9	31.9	31.9	76	25.2	2	4	338	0.00	30.064 
15:40	31.9	31.9	31.9	76	25.2	2	5	0	0.00	30.065 
15:45	31.8	31.8	31.8	76	25.1	2	5	270	0.00	30.071 
15:50	31.8	31.8	31.8	75	24.8	1	3	22	0.00	30.076 
15:55	31.8	31.8	31.8	75	24.8	1	6	270	0.00	30.080 
16:00	31.8	31.8	31.8	75	24.8	2	4	270	0.00	30.084 
16:05	31.9	31.9	31.9	75	24.9	0	2	338	0.00	30.091 
16:10	31.9	31.9	31.9	75	24.9	1	3	292	0.00	30.096 
16:15	31.8	31.8	31.8	75	24.8	1	4	292	0.00	30.099 
16:20	31.6	31.6	31.6	74	24.3	1	4	338	0.00	30.100 
16:25	31.6	31.6	31.6	75	24.6	1	2	292	0.00	30.108 
16:30	31.5	31.5	31.5	74	24.2	1	4	292	0.00	30.115 
16:35	31.2	31.2	31.2	74	23.9	1	4	292	0.00	30.119 
16:40	31.2	31.2	31.2	74	23.9	1	3	22	0.00	30.120 
16:45	31.0	31.0	31.0	74	23.7	1	3	338	0.00	30.127 
16:50	31.0	31.0	31.0	74	23.7	1	3	315	0.00	30.127 
16:55	31.0	31.0	31.0	75	24.0	1	4	338	0.00	30.130 
17:00	31.0	31.0	31.0	74	23.7	1	4	338	0.00	30.132 
17:05	31.0	31.0	31.0	74	23.7	1	3	338	0.00	30.140 
17:10	31.0	31.0	31.0	74	23.7	1	3	248	0.00	30.146 
17:15	31.0	31.0	31.0	74	23.7	1	3	315	0.00	30.149 
17:20	31.0	31.0	31.0	74	23.7	1	3	315	0.00	30.148 
17:25	31.0	31.0	31.0	74	23.7	1	4	292	0.00	30.148 
17:30	30.9	30.9	30.9	74	23.6	2	6	270	0.00	30.150 
17:35	30.7	30.7	30.7	74	23.4	1	6	292	0.00	30.155 
17:40	30.6	30.6	30.6	74	23.3	1	5	315	0.00	30.157 
17:45	30.6	30.6	30.6	74	23.3	1	4	0	0.00	30.162 
17:50	30.6	30.6	30.6	74	23.3	1	3	270	0.00	30.163 
17:55	30.6	30.6	30.6	74	23.3	1	4	315	0.00	30.164 
18:00	30.6	30.6	30.6	74	23.3	1	4	338	0.00	30.167 
18:05	30.4	30.4	30.4	73	22.8	1	4	0	0.00	30.181 
18:10	30.4	30.4	30.4	73	22.8	1	2	0	0.00	30.188 
18:15	30.4	30.4	30.4	73	22.8	2	10	315	0.00	30.191 
18:20	30.4	30.4	30.4	73	22.8	1	4	338	0.00	30.197 
18:25	30.4	30.4	30.4	73	22.8	1	4	292	0.00	30.201 
18:30	30.4	30.4	30.4	73	22.8	2	6	270	0.00	30.205 
18:35	30.4	30.4	30.4	73	22.8	1	4	270	0.00	30.205 
18:40	30.4	30.4	30.4	73	22.8	0	2	315	0.00	30.209 
18:45	30.4	30.4	30.4	74	23.1	1	3	315	0.00	30.209 
18:50	30.3	30.3	30.3	74	23.0	1	3	270	0.00	30.213 
18:55	30.3	30.3	30.3	74	23.0	1	3	270	0.00	30.216 
19:00	30.3	30.3	30.3	74	23.0	0	2	270	0.00	30.218 
19:05	30.1	30.1	30.1	74	22.8	1	4	270	0.00	30.224 
19:10	30.1	30.1	30.1	74	22.8	1	3	292	0.00	30.226 
19:15	30.1	30.1	30.1	75	23.2	1	4	315	0.00	30.227 
19:20	30.3	30.3	30.3	75	23.3	0	2	315	0.00	30.228 
19:25	30.3	30.3	30.3	74	23.0	0	3	315	0.00	30.229 
19:30	30.3	30.3	30.3	74	23.0	0	2	315	0.00	30.234 
19:35	30.3	30.3	30.3	74	23.0	0	2	315	0.00	30.239 
19:40	30.3	30.3	30.3	74	23.0	0	2	315	0.00	30.240 
19:45	30.3	30.3	30.3	74	23.0	0	2	315	0.00	30.242 
19:50	30.3	30.3	30.3	73	22.7	0	2	315	0.00	30.243 
19:55	30.3	30.3	30.3	72	22.4	1	3	315	0.00	30.242 
20:00	30.3	30.3	30.3	72	22.4	0	3	315	0.00	30.242 
20:05	30.3	30.3	30.3	72	22.4	0	2	45	0.00	30.245 
20:10	30.3	30.3	30.3	73	22.7	0	3	45	0.00	30.248 
20:15	30.1	30.1	30.1	73	22.5	1	4	112	0.00	30.259 
20:20	30.1	30.1	30.1	72	22.2	1	6	68	0.00	30.261 
20:25	30.0	30.0	30.0	72	22.1	1	4	112	0.00	30.265 
20:30	30.0	30.0	30.0	72	22.1	0	2	0	0.00	30.268 
20:35	29.8	29.8	29.8	72	21.9	0	3	22	0.00	30.269 
20:40	29.8	29.8	29.8	72	21.9	1	3	45	0.00	30.271 
20:45	29.7	29.7	29.7	72	21.8	0	4	90	0.00	30.273 
20:50	29.5	29.5	29.5	70	20.9	2	9	112	0.00	30.275 
20:55	29.5	29.5	29.5	70	20.9	1	4	112	0.00	30.276 
21:00	29.5	29.5	29.5	70	20.9	1	2	22	0.00	30.280 
21:05	29.4	29.4	29.4	70	20.8	0	2	0	0.00	30.280 
21:10	29.4	29.4	29.4	70	20.8	0	1	0	0.00	30.280 
21:15	29.4	29.4	29.4	70	20.8	0	1	0	0.00	30.282 
21:20	29.5	29.5	29.5	71	21.3	0	1	0	0.00	30.288 
21:25	29.5	29.5	29.5	70	20.9	1	3	270	0.00	30.294 
21:30	29.5	29.5	29.5	71	21.3	0	1	338	0.00	30.299 
21:35	29.5	29.5	29.5	71	21.3	0	1	338	0.00	30.299 
21:40	29.5	29.5	29.5	71	21.3	0	0	---	0.00	30.295 
21:45	29.5	29.5	29.5	71	21.3	0	2	338	0.00	30.294 
21:50	29.5	29.5	29.5	71	21.3	0	1	270	0.00	30.293 
21:55	29.5	29.5	29.5	71	21.3	0	1	270	0.00	30.294 
22:00	29.5	29.5	29.5	71	21.3	0	1	270	0.00	30.293 
22:05	29.5	29.5	29.5	71	21.3	0	1	270	0.00	30.294 
22:10	29.7	29.7	29.7	71	21.5	0	2	270	0.00	30.294 
22:15	29.7	29.7	29.7	71	21.5	0	3	270	0.00	30.296 
22:20	29.7	29.7	29.7	71	21.5	0	1	270	0.00	30.294 
22:25	29.7	29.7	29.7	71	21.5	0	2	270	0.00	30.296 
22:30	29.7	29.7	29.7	71	21.5	0	3	135	0.00	30.295 
22:35	29.7	29.7	29.7	70	21.1	1	5	90	0.00	30.296 
22:40	29.8	29.8	29.8	69	20.9	1	5	112	0.00	30.299 
22:45	30.0	30.0	30.0	67	20.4	2	9	112	0.00	30.301 
22:50	30.0	30.0	30.0	66	20.0	2	4	112	0.00	30.303 
22:55	29.8	29.8	29.8	65	19.5	1	5	68	0.00	30.305 
23:00	29.8	29.8	29.8	65	19.5	1	5	68	0.00	30.306 
23:05	29.7	29.7	29.7	65	19.4	1	4	45	0.00	30.308 
23:10	29.5	29.5	29.5	65	19.2	1	5	90	0.00	30.309 
23:15	29.5	29.5	29.5	65	19.2	1	4	68	0.00	30.311 
23:20	29.5	29.5	29.5	65	19.2	1	5	68	0.00	30.310 
23:25	29.4	29.4	29.4	65	19.1	1	3	45	0.00	30.311 
23:30	29.4	29.4	29.4	66	19.5	1	4	90	0.00	30.313 
23:35	29.4	29.4	29.4	67	19.8	1	4	45	0.00	30.312 
23:40	29.3	29.3	29.3	67	19.7	2	5	45	0.00	30.314 
23:45	29.3	29.3	29.3	69	20.4	2	5	90	0.00	30.318 
23:50	29.0	29.0	29.0	71	20.8	3	9	112	0.00	30.317 
23:55	28.7	28.7	28.7	72	20.8	2	7	112	0.00	30.315 

CoCoRaHS
IN-AL-39
A2 Web Hosting
Creative Commons License
GoDaddy
search engine by freefind advanced

loaded 2018-11-13 01:38:03 • last modified 2010-11-18 10:43:29
Privacy PolicyDisclaimer
• wx.awcolley.com is powered by PmWiki v.2002016 •
• all content (unless otherwise noted) © 2018 A W Colley